sensor_id;sensor_type;location;lat;lon;timestamp;pressure;altitude;pressure_sealevel;temperature;humidity
66664;BME280;59683;51.428;-1.994;2023-06-14T00:01:14;100801.22;;;10.54;100.00
66664;BME280;59683;51.428;-1.994;2023-06-14T00:03:39;100803.09;;;10.40;100.00
66664;BME280;59683;51.428;-1.994;2023-06-14T00:06:04;100801.38;;;10.28;100.00
66664;BME280;59683;51.428;-1.994;2023-06-14T00:08:30;100805.63;;;10.18;100.00
66664;BME280;59683;51.428;-1.994;2023-06-14T00:10:55;100811.63;;;10.09;100.00
66664;BME280;59683;51.428;-1.994;2023-06-14T00:13:21;100814.09;;;9.99;100.00
66664;BME280;59683;51.428;-1.994;2023-06-14T00:15:46;100808.53;;;9.91;100.00
66664;BME280;59683;51.428;-1.994;2023-06-14T00:18:12;100819.81;;;9.82;100.00
66664;BME280;59683;51.428;-1.994;2023-06-14T00:20:38;100821.28;;;9.73;100.00
66664;BME280;59683;51.428;-1.994;2023-06-14T00:23:04;100824.28;;;9.68;100.00
66664;BME280;59683;51.428;-1.994;2023-06-14T00:25:30;100834.44;;;9.62;100.00
66664;BME280;59683;51.428;-1.994;2023-06-14T00:27:57;100841.75;;;9.58;100.00
66664;BME280;59683;51.428;-1.994;2023-06-14T00:30:23;100835.63;;;9.58;100.00
66664;BME280;59683;51.428;-1.994;2023-06-14T00:32:48;100841.66;;;9.60;100.00
66664;BME280;59683;51.428;-1.994;2023-06-14T00:35:15;100841.03;;;9.56;100.00
66664;BME280;59683;51.428;-1.994;2023-06-14T00:37:40;100847.16;;;9.57;100.00
66664;BME280;59683;51.428;-1.994;2023-06-14T00:40:06;100849.28;;;9.52;100.00
66664;BME280;59683;51.428;-1.994;2023-06-14T00:42:32;100851.06;;;9.51;100.00
66664;BME280;59683;51.428;-1.994;2023-06-14T00:44:58;100853.50;;;9.54;100.00
66664;BME280;59683;51.428;-1.994;2023-06-14T00:47:23;100851.69;;;9.55;100.00
66664;BME280;59683;51.428;-1.994;2023-06-14T00:49:50;100851.75;;;9.66;100.00
66664;BME280;59683;51.428;-1.994;2023-06-14T00:52:17;100859.38;;;9.70;100.00
66664;BME280;59683;51.428;-1.994;2023-06-14T00:54:43;100867.91;;;9.74;100.00
66664;BME280;59683;51.428;-1.994;2023-06-14T00:57:09;100864.41;;;9.73;100.00
66664;BME280;59683;51.428;-1.994;2023-06-14T00:59:47;100857.13;;;9.77;100.00
66664;BME280;59683;51.428;-1.994;2023-06-14T01:02:13;100855.56;;;9.75;100.00
66664;BME280;59683;51.428;-1.994;2023-06-14T01:04:41;100861.69;;;9.75;100.00
66664;BME280;59683;51.428;-1.994;2023-06-14T01:13:53;100856.66;;;9.59;100.00
66664;BME280;59683;51.428;-1.994;2023-06-14T01:16:21;100862.25;;;9.55;100.00
66664;BME280;59683;51.428;-1.994;2023-06-14T01:18:46;100861.63;;;9.51;100.00
66664;BME280;59683;51.428;-1.994;2023-06-14T01:24:43;100865.19;;;9.26;100.00
66664;BME280;59683;51.428;-1.994;2023-06-14T01:27:10;100864.31;;;9.13;100.00
66664;BME280;59683;51.428;-1.994;2023-06-14T05:49:58;100913.47;;;10.27;100.00
66664;BME280;59683;51.428;-1.994;2023-06-14T05:52:23;100920.53;;;10.51;100.00
66664;BME280;59683;51.428;-1.994;2023-06-14T05:54:49;100913.31;;;10.88;100.00
66664;BME280;59683;51.428;-1.994;2023-06-14T05:57:14;100920.13;;;11.37;100.00
66664;BME280;59683;51.428;-1.994;2023-06-14T05:59:40;100909.13;;;12.09;100.00
66664;BME280;59683;51.428;-1.994;2023-06-14T06:02:05;100902.97;;;12.73;100.00
66664;BME280;59683;51.428;-1.994;2023-06-14T06:04:31;100896.00;;;13.23;100.00
66664;BME280;59683;51.428;-1.994;2023-06-14T06:06:56;100890.94;;;13.81;100.00
66664;BME280;59683;51.428;-1.994;2023-06-14T06:09:21;100890.00;;;14.21;100.00
66664;BME280;59683;51.428;-1.994;2023-06-14T06:11:47;100882.06;;;14.60;100.00
66664;BME280;59683;51.428;-1.994;2023-06-14T06:14:12;100885.50;;;14.99;100.00
66664;BME280;59683;51.428;-1.994;2023-06-14T06:16:38;100884.22;;;15.41;100.00
66664;BME280;59683;51.428;-1.994;2023-06-14T06:19:03;100881.31;;;15.71;100.00
66664;BME280;59683;51.428;-1.994;2023-06-14T06:21:28;100886.22;;;15.76;100.00
66664;BME280;59683;51.428;-1.994;2023-06-14T06:23:54;100879.69;;;15.88;100.00
66664;BME280;59683;51.428;-1.994;2023-06-14T06:26:21;100881.63;;;16.14;100.00
66664;BME280;59683;51.428;-1.994;2023-06-14T06:28:47;100881.00;;;16.38;100.00
66664;BME280;59683;51.428;-1.994;2023-06-14T06:31:13;100869.53;;;16.63;100.00
66664;BME280;59683;51.428;-1.994;2023-06-14T06:33:38;100874.81;;;16.99;100.00
66664;BME280;59683;51.428;-1.994;2023-06-14T06:36:05;100869.00;;;17.04;100.00
66664;BME280;59683;51.428;-1.994;2023-06-14T06:38:30;100881.94;;;17.42;100.00
66664;BME280;59683;51.428;-1.994;2023-06-14T06:40:56;100878.53;;;17.75;100.00
66664;BME280;59683;51.428;-1.994;2023-06-14T06:43:22;100883.88;;;17.75;100.00
66664;BME280;59683;51.428;-1.994;2023-06-14T06:45:47;100890.69;;;18.03;100.00
66664;BME280;59683;51.428;-1.994;2023-06-14T06:48:13;100892.06;;;18.15;100.00
66664;BME280;59683;51.428;-1.994;2023-06-14T06:50:39;100877.84;;;18.23;100.00
66664;BME280;59683;51.428;-1.994;2023-06-14T06:53:04;100870.16;;;18.44;100.00
66664;BME280;59683;51.428;-1.994;2023-06-14T06:55:30;100873.69;;;18.86;100.00
66664;BME280;59683;51.428;-1.994;2023-06-14T06:57:56;100882.34;;;19.21;100.00
66664;BME280;59683;51.428;-1.994;2023-06-14T07:00:21;100878.16;;;19.10;100.00
66664;BME280;59683;51.428;-1.994;2023-06-14T07:02:47;100873.94;;;19.24;100.00
66664;BME280;59683;51.428;-1.994;2023-06-14T07:05:13;100874.97;;;19.23;100.00
66664;BME280;59683;51.428;-1.994;2023-06-14T07:07:38;100884.91;;;19.53;100.00
66664;BME280;59683;51.428;-1.994;2023-06-14T07:10:04;100886.63;;;19.85;100.00
66664;BME280;59683;51.428;-1.994;2023-06-14T07:12:33;100887.63;;;20.16;100.00
66664;BME280;59683;51.428;-1.994;2023-06-14T07:15:01;100882.22;;;20.24;100.00
66664;BME280;59683;51.428;-1.994;2023-06-14T07:17:26;100888.09;;;20.50;100.00
66664;BME280;59683;51.428;-1.994;2023-06-14T07:19:52;100883.28;;;20.98;100.00
66664;BME280;59683;51.428;-1.994;2023-06-14T07:22:18;100878.81;;;20.53;100.00
66664;BME280;59683;51.428;-1.994;2023-06-14T07:24:44;100885.88;;;20.77;100.00
66664;BME280;59683;51.428;-1.994;2023-06-14T07:27:09;100890.81;;;20.88;100.00
66664;BME280;59683;51.428;-1.994;2023-06-14T07:29:35;100894.16;;;21.20;100.00
66664;BME280;59683;51.428;-1.994;2023-06-14T07:32:01;100896.16;;;21.41;100.00
66664;BME280;59683;51.428;-1.994;2023-06-14T07:34:26;100898.41;;;21.37;100.00
66664;BME280;59683;51.428;-1.994;2023-06-14T07:36:52;100894.47;;;21.40;100.00
66664;BME280;59683;51.428;-1.994;2023-06-14T07:39:19;100894.88;;;21.51;100.00
66664;BME280;59683;51.428;-1.994;2023-06-14T07:41:44;100903.94;;;21.65;100.00
66664;BME280;59683;51.428;-1.994;2023-06-14T07:44:10;100900.66;;;21.70;100.00
66664;BME280;59683;51.428;-1.994;2023-06-14T07:46:37;100897.69;;;21.79;100.00
66664;BME280;59683;51.428;-1.994;2023-06-14T07:49:03;100906.53;;;22.10;100.00
66664;BME280;59683;51.428;-1.994;2023-06-14T07:51:28;100898.56;;;22.16;100.00
66664;BME280;59683;51.428;-1.994;2023-06-14T07:53:54;100898.91;;;22.13;100.00
66664;BME280;59683;51.428;-1.994;2023-06-14T07:56:20;100900.13;;;22.11;100.00
66664;BME280;59683;51.428;-1.994;2023-06-14T07:58:45;100890.78;;;22.71;100.00
66664;BME280;59683;51.428;-1.994;2023-06-14T08:01:11;100891.88;;;22.34;100.00
66664;BME280;59683;51.428;-1.994;2023-06-14T08:03:37;100895.75;;;22.10;100.00
66664;BME280;59683;51.428;-1.994;2023-06-14T08:06:03;100899.53;;;22.30;100.00
66664;BME280;59683;51.428;-1.994;2023-06-14T08:08:29;100893.56;;;22.56;100.00
66664;BME280;59683;51.428;-1.994;2023-06-14T08:10:54;100903.66;;;22.47;100.00
66664;BME280;59683;51.428;-1.994;2023-06-14T08:13:20;100903.72;;;22.75;100.00
66664;BME280;59683;51.428;-1.994;2023-06-14T08:15:45;100909.19;;;22.61;100.00
66664;BME280;59683;51.428;-1.994;2023-06-14T08:18:11;100908.22;;;22.47;100.00
66664;BME280;59683;51.428;-1.994;2023-06-14T08:20:36;100904.72;;;22.96;100.00
66664;BME280;59683;51.428;-1.994;2023-06-14T08:23:03;100900.38;;;23.30;100.00
66664;BME280;59683;51.428;-1.994;2023-06-14T08:25:29;100902.41;;;23.56;98.40
66664;BME280;59683;51.428;-1.994;2023-06-14T08:27:55;100909.66;;;24.03;95.83
66664;BME280;59683;51.428;-1.994;2023-06-14T08:30:21;100905.22;;;23.75;97.98
66664;BME280;59683;51.428;-1.994;2023-06-14T08:32:47;100906.16;;;24.09;82.02
66664;BME280;59683;51.428;-1.994;2023-06-14T08:35:12;100911.13;;;24.06;83.20
66664;BME280;59683;51.428;-1.994;2023-06-14T08:37:38;100907.00;;;24.16;83.99
66664;BME280;59683;51.428;-1.994;2023-06-14T08:40:12;100897.50;;;24.40;80.78
66664;BME280;59683;51.428;-1.994;2023-06-14T08:42:42;100912.69;;;24.35;84.24
66664;BME280;59683;51.428;-1.994;2023-06-14T08:45:08;100907.13;;;24.50;78.06
66664;BME280;59683;51.428;-1.994;2023-06-14T08:47:34;100904.19;;;24.78;77.24
66664;BME280;59683;51.428;-1.994;2023-06-14T08:50:02;100901.50;;;24.58;80.34
66664;BME280;59683;51.428;-1.994;2023-06-14T08:52:32;100904.63;;;24.94;71.70
66664;BME280;59683;51.428;-1.994;2023-06-14T08:54:59;100901.72;;;24.83;72.74
66664;BME280;59683;51.428;-1.994;2023-06-14T08:57:26;100899.81;;;24.70;75.61
66664;BME280;59683;51.428;-1.994;2023-06-14T08:59:56;100887.34;;;24.69;77.98
66664;BME280;59683;51.428;-1.994;2023-06-14T09:02:22;100903.59;;;24.76;75.56
66664;BME280;59683;51.428;-1.994;2023-06-14T09:04:47;100903.56;;;25.09;72.84
66664;BME280;59683;51.428;-1.994;2023-06-14T09:07:14;100908.97;;;24.82;73.76
66664;BME280;59683;51.428;-1.994;2023-06-14T09:09:40;100898.34;;;25.01;71.72
66664;BME280;59683;51.428;-1.994;2023-06-14T09:12:10;100899.63;;;25.11;76.96
66664;BME280;59683;51.428;-1.994;2023-06-14T09:14:36;100898.72;;;25.44;77.70
66664;BME280;59683;51.428;-1.994;2023-06-14T09:17:05;100901.13;;;25.72;72.72
66664;BME280;59683;51.428;-1.994;2023-06-14T09:19:31;100915.75;;;26.16;66.48
66664;BME280;59683;51.428;-1.994;2023-06-14T09:21:56;100899.72;;;26.08;62.34
66664;BME280;59683;51.428;-1.994;2023-06-14T09:24:24;100911.44;;;26.02;64.07
66664;BME280;59683;51.428;-1.994;2023-06-14T09:26:51;100916.31;;;25.86;65.10
66664;BME280;59683;51.428;-1.994;2023-06-14T09:29:17;100909.94;;;26.12;65.23
66664;BME280;59683;51.428;-1.994;2023-06-14T09:31:43;100907.31;;;25.92;66.55
66664;BME280;59683;51.428;-1.994;2023-06-14T09:34:09;100907.75;;;26.28;63.09
66664;BME280;59683;51.428;-1.994;2023-06-14T09:36:34;100909.00;;;26.63;62.75
66664;BME280;59683;51.428;-1.994;2023-06-14T09:39:02;100915.81;;;26.73;61.77
66664;BME280;59683;51.428;-1.994;2023-06-14T09:41:32;100910.97;;;27.25;51.69
66664;BME280;59683;51.428;-1.994;2023-06-14T09:43:59;100908.16;;;27.68;49.05
66664;BME280;59683;51.428;-1.994;2023-06-14T09:46:28;100912.50;;;27.39;47.71
66664;BME280;59683;51.428;-1.994;2023-06-14T09:48:57;100902.91;;;27.55;47.91
66664;BME280;59683;51.428;-1.994;2023-06-14T09:51:23;100913.41;;;27.51;49.44
66664;BME280;59683;51.428;-1.994;2023-06-14T09:53:50;100913.78;;;27.55;52.75
66664;BME280;59683;51.428;-1.994;2023-06-14T09:56:23;100905.47;;;27.87;50.59
66664;BME280;59683;51.428;-1.994;2023-06-14T09:58:55;100908.06;;;28.12;48.40
66664;BME280;59683;51.428;-1.994;2023-06-14T10:01:23;100906.91;;;28.19;47.23
66664;BME280;59683;51.428;-1.994;2023-06-14T10:03:50;100906.75;;;28.02;49.25
66664;BME280;59683;51.428;-1.994;2023-06-14T10:06:20;100907.38;;;28.16;43.35
66664;BME280;59683;51.428;-1.994;2023-06-14T10:08:52;100899.75;;;27.76;43.17
66664;BME280;59683;51.428;-1.994;2023-06-14T10:11:17;100905.94;;;27.83;42.66
66664;BME280;59683;51.428;-1.994;2023-06-14T10:13:43;100901.94;;;28.28;44.49
66664;BME280;59683;51.428;-1.994;2023-06-14T10:16:14;100903.47;;;28.54;43.34
66664;BME280;59683;51.428;-1.994;2023-06-14T10:21:27;100908.84;;;28.84;43.68
66664;BME280;59683;51.428;-1.994;2023-06-14T10:23:55;100907.53;;;28.87;42.60
66664;BME280;59683;51.428;-1.994;2023-06-14T10:26:23;100906.97;;;29.32;40.99
66664;BME280;59683;51.428;-1.994;2023-06-14T10:29:16;100903.78;;;29.23;38.52
66664;BME280;59683;51.428;-1.994;2023-06-14T10:31:49;100904.56;;;29.47;40.07
66664;BME280;59683;51.428;-1.994;2023-06-14T10:34:26;100902.00;;;29.28;38.00
66664;BME280;59683;51.428;-1.994;2023-06-14T10:37:11;100898.75;;;29.67;40.47
66664;BME280;59683;51.428;-1.994;2023-06-14T10:39:43;100890.84;;;29.42;38.09
66664;BME280;59683;51.428;-1.994;2023-06-14T10:42:11;100904.66;;;29.75;38.74
66664;BME280;59683;51.428;-1.994;2023-06-14T10:44:45;100886.31;;;29.59;39.65
66664;BME280;59683;51.428;-1.994;2023-06-14T10:47:34;100898.00;;;29.83;37.32
66664;BME280;59683;51.428;-1.994;2023-06-14T10:50:06;100889.84;;;29.71;37.97
66664;BME280;59683;51.428;-1.994;2023-06-14T10:52:39;100892.38;;;29.90;38.09
66664;BME280;59683;51.428;-1.994;2023-06-14T10:55:11;100883.56;;;29.99;37.08
66664;BME280;59683;51.428;-1.994;2023-06-14T10:57:41;100878.69;;;30.30;36.10
66664;BME280;59683;51.428;-1.994;2023-06-14T11:00:08;100888.63;;;30.08;36.91
66664;BME280;59683;51.428;-1.994;2023-06-14T11:10:45;100876.13;;;31.08;35.10
66664;BME280;59683;51.428;-1.994;2023-06-14T11:13:12;100871.53;;;31.30;33.40
66664;BME280;59683;51.428;-1.994;2023-06-14T11:15:38;100866.97;;;31.19;33.13
66664;BME280;59683;51.428;-1.994;2023-06-14T11:18:05;100879.28;;;31.60;33.57
66664;BME280;59683;51.428;-1.994;2023-06-14T11:20:33;100877.44;;;31.88;31.49
66664;BME280;59683;51.428;-1.994;2023-06-14T11:22:59;100866.56;;;31.71;32.20
66664;BME280;59683;51.428;-1.994;2023-06-14T11:25:25;100867.09;;;31.46;33.51
66664;BME280;59683;51.428;-1.994;2023-06-14T11:27:52;100868.16;;;31.67;32.86
66664;BME280;59683;51.428;-1.994;2023-06-14T11:30:17;100861.88;;;31.44;34.26
66664;BME280;59683;51.428;-1.994;2023-06-14T11:32:49;100865.41;;;31.89;33.88
66664;BME280;59683;51.428;-1.994;2023-06-14T11:35:16;100857.00;;;31.74;34.78
66664;BME280;59683;51.428;-1.994;2023-06-14T11:37:41;100858.03;;;32.16;33.43
66664;BME280;59683;51.428;-1.994;2023-06-14T11:40:08;100859.66;;;32.45;32.71
66664;BME280;59683;51.428;-1.994;2023-06-14T11:42:35;100854.22;;;32.50;32.92
66664;BME280;59683;51.428;-1.994;2023-06-14T11:45:01;100848.06;;;32.70;33.00
66664;BME280;59683;51.428;-1.994;2023-06-14T11:47:37;100847.19;;;33.01;32.53
66664;BME280;59683;51.428;-1.994;2023-06-14T11:50:04;100843.13;;;32.72;33.79
66664;BME280;59683;51.428;-1.994;2023-06-14T11:52:30;100833.88;;;33.25;32.63
66664;BME280;59683;51.428;-1.994;2023-06-14T11:54:56;100847.91;;;33.34;32.78
66664;BME280;59683;51.428;-1.994;2023-06-14T11:57:22;100839.66;;;33.29;32.28
66664;BME280;59683;51.428;-1.994;2023-06-14T11:59:48;100844.22;;;33.08;32.19
66664;BME280;59683;51.428;-1.994;2023-06-14T12:02:18;100844.72;;;33.52;33.98
66664;BME280;59683;51.428;-1.994;2023-06-14T12:04:46;100842.06;;;33.78;31.47
66664;BME280;59683;51.428;-1.994;2023-06-14T12:07:13;100835.16;;;33.70;32.77
66664;BME280;59683;51.428;-1.994;2023-06-14T12:10:07;100839.91;;;34.00;31.62
66664;BME280;59683;51.428;-1.994;2023-06-14T12:12:39;100844.31;;;34.32;31.34
66664;BME280;59683;51.428;-1.994;2023-06-14T12:15:06;100843.78;;;34.50;30.24
66664;BME280;59683;51.428;-1.994;2023-06-14T12:17:36;100841.03;;;34.55;29.65
66664;BME280;59683;51.428;-1.994;2023-06-14T12:20:08;100830.03;;;34.20;30.39
66664;BME280;59683;51.428;-1.994;2023-06-14T12:22:54;100839.63;;;34.07;31.23
66664;BME280;59683;51.428;-1.994;2023-06-14T12:25:35;100830.81;;;33.95;30.19
66664;BME280;59683;51.428;-1.994;2023-06-14T12:28:06;100837.09;;;33.85;31.49
66664;BME280;59683;51.428;-1.994;2023-06-14T12:30:32;100836.00;;;33.81;31.99
66664;BME280;59683;51.428;-1.994;2023-06-14T12:32:58;100832.09;;;33.62;32.56
66664;BME280;59683;51.428;-1.994;2023-06-14T12:35:23;100837.13;;;33.95;31.06
66664;BME280;59683;51.428;-1.994;2023-06-14T12:37:48;100828.03;;;33.79;33.29
66664;BME280;59683;51.428;-1.994;2023-06-14T12:40:14;100833.25;;;33.81;31.85
66664;BME280;59683;51.428;-1.994;2023-06-14T12:42:40;100836.03;;;33.86;32.03
66664;BME280;59683;51.428;-1.994;2023-06-14T12:45:06;100838.25;;;34.45;31.96
66664;BME280;59683;51.428;-1.994;2023-06-14T12:47:32;100825.91;;;34.38;32.27
66664;BME280;59683;51.428;-1.994;2023-06-14T12:49:57;100831.69;;;34.56;32.88
66664;BME280;59683;51.428;-1.994;2023-06-14T12:52:23;100830.31;;;34.44;31.58
66664;BME280;59683;51.428;-1.994;2023-06-14T12:54:48;100829.44;;;34.89;33.24
66664;BME280;59683;51.428;-1.994;2023-06-14T12:57:13;100822.66;;;35.91;30.44
66664;BME280;59683;51.428;-1.994;2023-06-14T12:59:39;100835.63;;;35.36;31.04
66664;BME280;59683;51.428;-1.994;2023-06-14T13:02:18;100824.63;;;35.36;30.75
66664;BME280;59683;51.428;-1.994;2023-06-14T13:04:44;100822.22;;;35.14;31.58
66664;BME280;59683;51.428;-1.994;2023-06-14T13:07:10;100816.75;;;34.98;31.35
66664;BME280;59683;51.428;-1.994;2023-06-14T13:09:36;100827.25;;;34.71;30.22
66664;BME280;59683;51.428;-1.994;2023-06-14T13:12:02;100822.34;;;34.27;32.38
66664;BME280;59683;51.428;-1.994;2023-06-14T13:14:27;100816.28;;;34.71;32.50
66664;BME280;59683;51.428;-1.994;2023-06-14T13:16:52;100819.56;;;34.47;31.83
66664;BME280;59683;51.428;-1.994;2023-06-14T13:19:18;100823.44;;;34.56;33.67
66664;BME280;59683;51.428;-1.994;2023-06-14T13:21:43;100825.59;;;34.80;32.48
66664;BME280;59683;51.428;-1.994;2023-06-14T13:24:09;100814.19;;;35.27;32.27
66664;BME280;59683;51.428;-1.994;2023-06-14T13:26:34;100811.63;;;35.96;30.25
66664;BME280;59683;51.428;-1.994;2023-06-14T13:29:00;100812.72;;;35.45;31.66
66664;BME280;59683;51.428;-1.994;2023-06-14T13:31:26;100811.63;;;35.91;30.71
66664;BME280;59683;51.428;-1.994;2023-06-14T13:33:51;100816.28;;;35.95;30.55
66664;BME280;59683;51.428;-1.994;2023-06-14T13:36:16;100813.75;;;36.38;30.78
66664;BME280;59683;51.428;-1.994;2023-06-14T13:38:42;100814.47;;;36.20;29.85
66664;BME280;59683;51.428;-1.994;2023-06-14T13:41:07;100815.31;;;35.76;29.60
66664;BME280;59683;51.428;-1.994;2023-06-14T13:43:33;100815.56;;;35.85;29.65
66664;BME280;59683;51.428;-1.994;2023-06-14T13:45:58;100805.78;;;35.63;29.86
66664;BME280;59683;51.428;-1.994;2023-06-14T13:48:23;100796.13;;;35.66;31.10
66664;BME280;59683;51.428;-1.994;2023-06-14T13:50:49;100805.53;;;36.33;28.67
66664;BME280;59683;51.428;-1.994;2023-06-14T13:53:15;100805.75;;;36.37;29.96
66664;BME280;59683;51.428;-1.994;2023-06-14T13:55:40;100799.03;;;36.53;30.04
66664;BME280;59683;51.428;-1.994;2023-06-14T13:58:06;100807.00;;;36.55;30.73
66664;BME280;59683;51.428;-1.994;2023-06-14T14:00:31;100801.41;;;36.65;30.11
66664;BME280;59683;51.428;-1.994;2023-06-14T14:02:57;100802.66;;;37.02;30.96
66664;BME280;59683;51.428;-1.994;2023-06-14T14:05:24;100807.94;;;36.98;28.72
66664;BME280;59683;51.428;-1.994;2023-06-14T14:07:54;100800.00;;;36.67;29.60
66664;BME280;59683;51.428;-1.994;2023-06-14T14:10:19;100804.81;;;36.22;29.82
66664;BME280;59683;51.428;-1.994;2023-06-14T14:12:45;100797.63;;;36.21;31.02
66664;BME280;59683;51.428;-1.994;2023-06-14T14:15:11;100800.56;;;37.12;29.52
66664;BME280;59683;51.428;-1.994;2023-06-14T14:17:40;100798.56;;;37.61;28.99
66664;BME280;59683;51.428;-1.994;2023-06-14T14:20:06;100791.91;;;37.24;29.33
66664;BME280;59683;51.428;-1.994;2023-06-14T14:22:32;100793.78;;;36.57;29.68
66664;BME280;59683;51.428;-1.994;2023-06-14T14:24:57;100798.88;;;36.68;30.21
66664;BME280;59683;51.428;-1.994;2023-06-14T14:27:23;100797.00;;;36.64;30.09
66664;BME280;59683;51.428;-1.994;2023-06-14T14:29:51;100795.81;;;36.70;29.54
66664;BME280;59683;51.428;-1.994;2023-06-14T14:32:16;100794.59;;;36.81;29.09
66664;BME280;59683;51.428;-1.994;2023-06-14T14:34:41;100796.94;;;36.69;30.82
66664;BME280;59683;51.428;-1.994;2023-06-14T14:37:07;100794.34;;;37.26;29.53
66664;BME280;59683;51.428;-1.994;2023-06-14T14:39:32;100792.59;;;37.54;29.24
66664;BME280;59683;51.428;-1.994;2023-06-14T14:41:58;100792.69;;;37.49;28.75
66664;BME280;59683;51.428;-1.994;2023-06-14T14:44:24;100793.44;;;37.54;29.09
66664;BME280;59683;51.428;-1.994;2023-06-14T14:46:49;100786.59;;;37.09;29.70
66664;BME280;59683;51.428;-1.994;2023-06-14T14:49:14;100792.16;;;36.75;29.03
66664;BME280;59683;51.428;-1.994;2023-06-14T14:51:40;100791.56;;;36.83;29.14
66664;BME280;59683;51.428;-1.994;2023-06-14T14:54:06;100777.69;;;36.88;30.42
66664;BME280;59683;51.428;-1.994;2023-06-14T14:56:31;100790.94;;;36.62;29.82
66664;BME280;59683;51.428;-1.994;2023-06-14T14:58:57;100795.13;;;37.07;29.22
66664;BME280;59683;51.428;-1.994;2023-06-14T15:01:22;100788.97;;;37.34;28.06
66664;BME280;59683;51.428;-1.994;2023-06-14T15:03:48;100800.81;;;37.59;27.74
66664;BME280;59683;51.428;-1.994;2023-06-14T15:06:13;100781.44;;;37.21;29.57
66664;BME280;59683;51.428;-1.994;2023-06-14T15:08:38;100787.16;;;37.06;29.60
66664;BME280;59683;51.428;-1.994;2023-06-14T15:11:04;100782.91;;;36.89;29.15
66664;BME280;59683;51.428;-1.994;2023-06-14T15:13:29;100793.34;;;36.98;29.83
66664;BME280;59683;51.428;-1.994;2023-06-14T15:15:54;100790.44;;;37.70;27.85
66664;BME280;59683;51.428;-1.994;2023-06-14T15:18:20;100789.63;;;37.07;30.01
66664;BME280;59683;51.428;-1.994;2023-06-14T15:20:46;100785.34;;;37.20;27.60
66664;BME280;59683;51.428;-1.994;2023-06-14T15:23:12;100790.53;;;35.81;29.33
66664;BME280;59683;51.428;-1.994;2023-06-14T15:25:44;100780.34;;;35.27;31.37
66664;BME280;59683;51.428;-1.994;2023-06-14T15:28:10;100776.19;;;34.49;31.63
66664;BME280;59683;51.428;-1.994;2023-06-14T15:30:35;100778.22;;;35.09;31.48
66664;BME280;59683;51.428;-1.994;2023-06-14T15:33:01;100781.81;;;35.64;30.52
66664;BME280;59683;51.428;-1.994;2023-06-14T15:35:26;100776.16;;;35.40;30.77
66664;BME280;59683;51.428;-1.994;2023-06-14T15:37:51;100786.50;;;35.63;31.24
66664;BME280;59683;51.428;-1.994;2023-06-14T15:40:17;100780.31;;;35.82;29.72
66664;BME280;59683;51.428;-1.994;2023-06-14T15:42:42;100778.19;;;35.68;29.53
66664;BME280;59683;51.428;-1.994;2023-06-14T15:45:08;100780.56;;;35.85;28.89
66664;BME280;59683;51.428;-1.994;2023-06-14T15:47:34;100767.38;;;36.45;29.61
66664;BME280;59683;51.428;-1.994;2023-06-14T15:49:59;100771.75;;;36.52;28.26
66664;BME280;59683;51.428;-1.994;2023-06-14T15:52:25;100774.53;;;36.76;27.85
66664;BME280;59683;51.428;-1.994;2023-06-14T15:54:50;100770.69;;;36.47;28.48
66664;BME280;59683;51.428;-1.994;2023-06-14T15:57:16;100768.06;;;36.61;28.24
66664;BME280;59683;51.428;-1.994;2023-06-14T15:59:41;100772.00;;;36.26;28.29
66664;BME280;59683;51.428;-1.994;2023-06-14T16:02:06;100769.28;;;36.50;27.78
66664;BME280;59683;51.428;-1.994;2023-06-14T16:04:32;100773.44;;;36.18;27.76
66664;BME280;59683;51.428;-1.994;2023-06-14T16:06:57;100776.16;;;36.77;28.01
66664;BME280;59683;51.428;-1.994;2023-06-14T16:09:23;100770.91;;;36.56;28.59
66664;BME280;59683;51.428;-1.994;2023-06-14T16:11:48;100769.91;;;36.95;27.77
66664;BME280;59683;51.428;-1.994;2023-06-14T16:14:14;100766.72;;;36.83;27.34
66664;BME280;59683;51.428;-1.994;2023-06-14T16:16:39;100775.13;;;36.97;27.91
66664;BME280;59683;51.428;-1.994;2023-06-14T16:19:05;100775.88;;;36.54;28.08
66664;BME280;59683;51.428;-1.994;2023-06-14T16:21:31;100773.66;;;36.56;28.39
66664;BME280;59683;51.428;-1.994;2023-06-14T16:24:04;100772.53;;;36.81;28.12
66664;BME280;59683;51.428;-1.994;2023-06-14T16:26:30;100774.00;;;36.50;26.14
66664;BME280;59683;51.428;-1.994;2023-06-14T16:28:55;100764.19;;;36.33;26.73
66664;BME280;59683;51.428;-1.994;2023-06-14T16:31:21;100763.38;;;36.33;26.67
66664;BME280;59683;51.428;-1.994;2023-06-14T16:33:47;100765.63;;;35.96;28.02
66664;BME280;59683;51.428;-1.994;2023-06-14T16:36:19;100762.44;;;36.18;28.95
66664;BME280;59683;51.428;-1.994;2023-06-14T16:38:45;100772.34;;;36.72;27.67
66664;BME280;59683;51.428;-1.994;2023-06-14T16:41:10;100770.97;;;36.75;27.86
66664;BME280;59683;51.428;-1.994;2023-06-14T16:43:38;100766.03;;;36.43;26.93
66664;BME280;59683;51.428;-1.994;2023-06-14T16:46:04;100760.56;;;36.09;27.46
66664;BME280;59683;51.428;-1.994;2023-06-14T16:48:29;100764.19;;;36.04;28.00
66664;BME280;59683;51.428;-1.994;2023-06-14T16:50:54;100760.88;;;35.68;27.86
66664;BME280;59683;51.428;-1.994;2023-06-14T16:53:20;100762.16;;;35.36;28.92
66664;BME280;59683;51.428;-1.994;2023-06-14T16:55:46;100759.50;;;35.16;29.21
66664;BME280;59683;51.428;-1.994;2023-06-14T16:58:11;100756.06;;;35.39;29.63
66664;BME280;59683;51.428;-1.994;2023-06-14T17:00:37;100757.28;;;35.18;29.93
66664;BME280;59683;51.428;-1.994;2023-06-14T17:03:02;100770.97;;;35.28;29.20
66664;BME280;59683;51.428;-1.994;2023-06-14T17:05:29;100761.97;;;35.12;29.07
66664;BME280;59683;51.428;-1.994;2023-06-14T17:07:55;100765.97;;;34.60;29.81
66664;BME280;59683;51.428;-1.994;2023-06-14T17:10:20;100769.06;;;34.23;30.50
66664;BME280;59683;51.428;-1.994;2023-06-14T17:12:46;100766.84;;;33.99;31.81
66664;BME280;59683;51.428;-1.994;2023-06-14T17:15:11;100762.53;;;33.20;32.32
66664;BME280;59683;51.428;-1.994;2023-06-14T17:17:36;100767.56;;;32.38;34.32